sensor_id;sensor_type;location;lat;lon;timestamp;temperature;humidity
45729;DHT22;31439;53.512;10.206;2023-09-18T00:02:26;20.30;99.90
45729;DHT22;31439;53.512;10.206;2023-09-18T00:04:55;20.20;99.90
45729;DHT22;31439;53.512;10.206;2023-09-18T00:07:20;20.20;99.90
45729;DHT22;31439;53.512;10.206;2023-09-18T00:09:46;20.20;99.90
45729;DHT22;31439;53.512;10.206;2023-09-18T00:12:11;20.10;99.90
45729;DHT22;31439;53.512;10.206;2023-09-18T00:14:37;20.10;99.90
45729;DHT22;31439;53.512;10.206;2023-09-18T00:17:03;20.10;99.90
45729;DHT22;31439;53.512;10.206;2023-09-18T00:19:29;20.10;99.90
45729;DHT22;31439;53.512;10.206;2023-09-18T00:21:55;20.00;99.90
45729;DHT22;31439;53.512;10.206;2023-09-18T00:24:21;20.00;99.90
45729;DHT22;31439;53.512;10.206;2023-09-18T00:26:48;20.00;99.90
45729;DHT22;31439;53.512;10.206;2023-09-18T00:29:14;20.00;99.90
45729;DHT22;31439;53.512;10.206;2023-09-18T00:31:40;20.00;99.90
45729;DHT22;31439;53.512;10.206;2023-09-18T00:34:05;19.90;99.90
45729;DHT22;31439;53.512;10.206;2023-09-18T00:36:31;19.90;99.90
45729;DHT22;31439;53.512;10.206;2023-09-18T00:38:56;19.90;99.90
45729;DHT22;31439;53.512;10.206;2023-09-18T00:41:22;20.50;99.90
45729;DHT22;31439;53.512;10.206;2023-09-18T00:43:48;19.90;99.90
45729;DHT22;31439;53.512;10.206;2023-09-18T00:46:13;19.80;99.90
45729;DHT22;31439;53.512;10.206;2023-09-18T00:48:39;19.80;99.90
45729;DHT22;31439;53.512;10.206;2023-09-18T00:51:06;19.80;99.90
45729;DHT22;31439;53.512;10.206;2023-09-18T00:53:33;19.80;99.90
45729;DHT22;31439;53.512;10.206;2023-09-18T00:56:00;19.80;99.90
45729;DHT22;31439;53.512;10.206;2023-09-18T00:58:29;19.80;99.90
45729;DHT22;31439;53.512;10.206;2023-09-18T01:00:55;19.80;99.90
45729;DHT22;31439;53.512;10.206;2023-09-18T01:03:21;19.80;99.90
45729;DHT22;31439;53.512;10.206;2023-09-18T01:05:47;19.80;99.90
45729;DHT22;31439;53.512;10.206;2023-09-18T01:08:13;19.70;99.90
45729;DHT22;31439;53.512;10.206;2023-09-18T01:13:25;19.70;99.90
45729;DHT22;31439;53.512;10.206;2023-09-18T01:16:20;19.70;99.90
45729;DHT22;31439;53.512;10.206;2023-09-18T01:18:50;19.70;99.90
45729;DHT22;31439;53.512;10.206;2023-09-18T01:21:16;19.60;99.90
45729;DHT22;31439;53.512;10.206;2023-09-18T01:23:42;19.60;99.90
45729;DHT22;31439;53.512;10.206;2023-09-18T01:26:07;19.60;99.90
45729;DHT22;31439;53.512;10.206;2023-09-18T01:28:33;19.60;99.90
45729;DHT22;31439;53.512;10.206;2023-09-18T01:30:59;19.60;99.90
45729;DHT22;31439;53.512;10.206;2023-09-18T01:33:25;19.60;99.90
45729;DHT22;31439;53.512;10.206;2023-09-18T01:35:52;19.60;99.90
45729;DHT22;31439;53.512;10.206;2023-09-18T01:38:22;19.50;99.90
45729;DHT22;31439;53.512;10.206;2023-09-18T01:40:48;19.50;99.90
45729;DHT22;31439;53.512;10.206;2023-09-18T01:43:14;19.50;99.90
45729;DHT22;31439;53.512;10.206;2023-09-18T01:45:40;19.50;99.90
45729;DHT22;31439;53.512;10.206;2023-09-18T01:48:06;19.50;99.90
45729;DHT22;31439;53.512;10.206;2023-09-18T01:50:32;19.50;99.90
45729;DHT22;31439;53.512;10.206;2023-09-18T01:52:58;19.40;99.90
45729;DHT22;31439;53.512;10.206;2023-09-18T01:55:24;19.40;99.90
45729;DHT22;31439;53.512;10.206;2023-09-18T01:57:50;19.40;99.90
45729;DHT22;31439;53.512;10.206;2023-09-18T02:00:15;19.40;99.90
45729;DHT22;31439;53.512;10.206;2023-09-18T02:02:41;19.40;99.90
45729;DHT22;31439;53.512;10.206;2023-09-18T02:05:07;19.40;99.90
45729;DHT22;31439;53.512;10.206;2023-09-18T02:07:33;19.40;99.90
45729;DHT22;31439;53.512;10.206;2023-09-18T02:09:59;19.40;99.90
45729;DHT22;31439;53.512;10.206;2023-09-18T02:12:24;19.40;99.90
45729;DHT22;31439;53.512;10.206;2023-09-18T02:14:50;19.40;99.90
45729;DHT22;31439;53.512;10.206;2023-09-18T02:17:16;19.40;99.90
45729;DHT22;31439;53.512;10.206;2023-09-18T02:19:41;19.40;99.90
45729;DHT22;31439;53.512;10.206;2023-09-18T02:22:08;19.40;99.90
45729;DHT22;31439;53.512;10.206;2023-09-18T02:24:34;19.40;99.90
45729;DHT22;31439;53.512;10.206;2023-09-18T02:26:59;19.40;99.90
45729;DHT22;31439;53.512;10.206;2023-09-18T02:29:25;19.30;99.90
45729;DHT22;31439;53.512;10.206;2023-09-18T02:31:51;19.30;99.90
45729;DHT22;31439;53.512;10.206;2023-09-18T02:34:16;19.30;99.90
45729;DHT22;31439;53.512;10.206;2023-09-18T02:36:44;19.30;99.90
45729;DHT22;31439;53.512;10.206;2023-09-18T02:39:10;19.30;99.90
45729;DHT22;31439;53.512;10.206;2023-09-18T02:41:35;19.20;99.90
45729;DHT22;31439;53.512;10.206;2023-09-18T02:44:01;19.30;99.90
45729;DHT22;31439;53.512;10.206;2023-09-18T02:46:26;19.30;99.90
45729;DHT22;31439;53.512;10.206;2023-09-18T02:48:52;19.20;99.90
45729;DHT22;31439;53.512;10.206;2023-09-18T02:51:18;19.20;99.90
45729;DHT22;31439;53.512;10.206;2023-09-18T02:53:43;19.20;99.90
45729;DHT22;31439;53.512;10.206;2023-09-18T02:56:09;19.30;99.90
45729;DHT22;31439;53.512;10.206;2023-09-18T02:58:35;19.30;99.90
45729;DHT22;31439;53.512;10.206;2023-09-18T03:01:00;19.30;99.90
45729;DHT22;31439;53.512;10.206;2023-09-18T03:03:28;19.20;99.90
45729;DHT22;31439;53.512;10.206;2023-09-18T03:06:00;19.20;99.90
45729;DHT22;31439;53.512;10.206;2023-09-18T03:08:27;19.20;99.90
45729;DHT22;31439;53.512;10.206;2023-09-18T03:10:52;19.20;99.90
45729;DHT22;31439;53.512;10.206;2023-09-18T03:13:18;19.20;99.90
45729;DHT22;31439;53.512;10.206;2023-09-18T03:15:46;19.20;99.90
45729;DHT22;31439;53.512;10.206;2023-09-18T03:18:15;19.20;99.90
45729;DHT22;31439;53.512;10.206;2023-09-18T03:20:40;19.20;99.90
45729;DHT22;31439;53.512;10.206;2023-09-18T03:23:06;19.20;99.90
45729;DHT22;31439;53.512;10.206;2023-09-18T03:25:32;19.20;99.90
45729;DHT22;31439;53.512;10.206;2023-09-18T03:27:58;19.20;99.90
45729;DHT22;31439;53.512;10.206;2023-09-18T03:30:24;19.10;99.90
45729;DHT22;31439;53.512;10.206;2023-09-18T03:32:50;19.10;99.90
45729;DHT22;31439;53.512;10.206;2023-09-18T03:35:16;19.10;99.90
45729;DHT22;31439;53.512;10.206;2023-09-18T03:40:11;19.10;99.90
45729;DHT22;31439;53.512;10.206;2023-09-18T03:42:37;19.00;99.90
45729;DHT22;31439;53.512;10.206;2023-09-18T03:45:05;19.00;99.90
45729;DHT22;31439;53.512;10.206;2023-09-18T03:47:31;19.00;99.90
45729;DHT22;31439;53.512;10.206;2023-09-18T03:49:56;19.10;99.90
45729;DHT22;31439;53.512;10.206;2023-09-18T03:52:22;19.00;99.90
45729;DHT22;31439;53.512;10.206;2023-09-18T03:54:47;19.00;99.90
45729;DHT22;31439;53.512;10.206;2023-09-18T03:57:13;19.00;99.90
45729;DHT22;31439;53.512;10.206;2023-09-18T03:59:38;19.00;99.90
45729;DHT22;31439;53.512;10.206;2023-09-18T04:02:04;19.00;99.90
45729;DHT22;31439;53.512;10.206;2023-09-18T04:04:30;19.00;99.90
45729;DHT22;31439;53.512;10.206;2023-09-18T04:06:57;19.00;99.90
45729;DHT22;31439;53.512;10.206;2023-09-18T04:09:23;19.00;99.90
45729;DHT22;31439;53.512;10.206;2023-09-18T04:11:48;18.90;99.90
45729;DHT22;31439;53.512;10.206;2023-09-18T04:14:14;19.00;99.90
45729;DHT22;31439;53.512;10.206;2023-09-18T04:16:40;18.90;99.90
45729;DHT22;31439;53.512;10.206;2023-09-18T04:19:07;18.90;99.90
45729;DHT22;31439;53.512;10.206;2023-09-18T04:21:32;18.90;99.90
45729;DHT22;31439;53.512;10.206;2023-09-18T04:23:58;18.90;99.90
45729;DHT22;31439;53.512;10.206;2023-09-18T04:26:27;18.90;99.90
45729;DHT22;31439;53.512;10.206;2023-09-18T04:28:57;18.90;99.90
45729;DHT22;31439;53.512;10.206;2023-09-18T04:31:22;18.90;99.90
45729;DHT22;31439;53.512;10.206;2023-09-18T04:33:48;18.90;99.90
45729;DHT22;31439;53.512;10.206;2023-09-18T04:36:14;18.90;99.90
45729;DHT22;31439;53.512;10.206;2023-09-18T04:38:39;18.90;99.90
45729;DHT22;31439;53.512;10.206;2023-09-18T04:41:05;18.90;99.90
45729;DHT22;31439;53.512;10.206;2023-09-18T04:43:34;18.90;99.90
45729;DHT22;31439;53.512;10.206;2023-09-18T04:46:00;18.90;99.90
45729;DHT22;31439;53.512;10.206;2023-09-18T04:48:28;18.90;99.90
45729;DHT22;31439;53.512;10.206;2023-09-18T04:50:53;18.80;99.90
45729;DHT22;31439;53.512;10.206;2023-09-18T04:53:19;18.80;99.90
45729;DHT22;31439;53.512;10.206;2023-09-18T04:55:45;18.80;99.90
45729;DHT22;31439;53.512;10.206;2023-09-18T04:58:15;18.80;99.90
45729;DHT22;31439;53.512;10.206;2023-09-18T05:00:41;18.80;99.90
45729;DHT22;31439;53.512;10.206;2023-09-18T05:03:07;18.80;99.90
45729;DHT22;31439;53.512;10.206;2023-09-18T05:05:34;18.80;99.90
45729;DHT22;31439;53.512;10.206;2023-09-18T05:08:02;18.80;99.90
45729;DHT22;31439;53.512;10.206;2023-09-18T05:10:28;18.80;99.90
45729;DHT22;31439;53.512;10.206;2023-09-18T05:12:54;18.80;99.90
45729;DHT22;31439;53.512;10.206;2023-09-18T05:15:24;18.70;99.90
45729;DHT22;31439;53.512;10.206;2023-09-18T05:17:51;18.80;99.90
45729;DHT22;31439;53.512;10.206;2023-09-18T05:20:21;18.70;99.90
45729;DHT22;31439;53.512;10.206;2023-09-18T05:22:50;18.70;99.90
45729;DHT22;31439;53.512;10.206;2023-09-18T05:25:16;18.80;99.90
45729;DHT22;31439;53.512;10.206;2023-09-18T05:27:42;18.70;99.90
45729;DHT22;31439;53.512;10.206;2023-09-18T05:30:11;18.80;99.90
45729;DHT22;31439;53.512;10.206;2023-09-18T05:32:38;18.80;99.90
45729;DHT22;31439;53.512;10.206;2023-09-18T05:35:03;18.80;99.90
45729;DHT22;31439;53.512;10.206;2023-09-18T05:37:34;18.80;99.90
45729;DHT22;31439;53.512;10.206;2023-09-18T05:40:00;18.80;99.90
45729;DHT22;31439;53.512;10.206;2023-09-18T05:42:26;18.90;99.90
45729;DHT22;31439;53.512;10.206;2023-09-18T05:44:51;18.90;99.90
45729;DHT22;31439;53.512;10.206;2023-09-18T05:47:17;18.80;99.90
45729;DHT22;31439;53.512;10.206;2023-09-18T05:49:42;18.90;99.90
45729;DHT22;31439;53.512;10.206;2023-09-18T05:52:08;18.90;99.90
45729;DHT22;31439;53.512;10.206;2023-09-18T05:54:34;18.90;99.90
45729;DHT22;31439;53.512;10.206;2023-09-18T05:57:00;19.00;99.90
45729;DHT22;31439;53.512;10.206;2023-09-18T05:59:27;19.50;99.90
45729;DHT22;31439;53.512;10.206;2023-09-18T06:01:52;19.70;99.90
45729;DHT22;31439;53.512;10.206;2023-09-18T06:04:19;19.80;99.90
45729;DHT22;31439;53.512;10.206;2023-09-18T06:06:45;20.00;99.90
45729;DHT22;31439;53.512;10.206;2023-09-18T06:09:11;20.10;99.90
45729;DHT22;31439;53.512;10.206;2023-09-18T06:11:38;19.90;99.90
45729;DHT22;31439;53.512;10.206;2023-09-18T06:14:03;19.70;99.90
45729;DHT22;31439;53.512;10.206;2023-09-18T06:16:29;19.50;99.90
45729;DHT22;31439;53.512;10.206;2023-09-18T06:18:56;19.40;99.90
45729;DHT22;31439;53.512;10.206;2023-09-18T06:21:21;19.40;99.90
45729;DHT22;31439;53.512;10.206;2023-09-18T06:23:47;19.40;99.90
45729;DHT22;31439;53.512;10.206;2023-09-18T06:26:12;19.40;99.90
45729;DHT22;31439;53.512;10.206;2023-09-18T06:28:39;19.40;99.90
45729;DHT22;31439;53.512;10.206;2023-09-18T06:31:04;19.50;99.90
45729;DHT22;31439;53.512;10.206;2023-09-18T06:33:30;19.50;99.90
45729;DHT22;31439;53.512;10.206;2023-09-18T06:35:56;19.50;99.90
45729;DHT22;31439;53.512;10.206;2023-09-18T06:38:21;19.50;99.90
45729;DHT22;31439;53.512;10.206;2023-09-18T06:40:47;19.50;99.90
45729;DHT22;31439;53.512;10.206;2023-09-18T06:43:13;19.60;99.90
45729;DHT22;31439;53.512;10.206;2023-09-18T06:45:39;19.60;99.90
45729;DHT22;31439;53.512;10.206;2023-09-18T06:48:05;19.60;99.90
45729;DHT22;31439;53.512;10.206;2023-09-18T06:50:30;19.60;99.90
45729;DHT22;31439;53.512;10.206;2023-09-18T06:52:56;19.60;99.90
45729;DHT22;31439;53.512;10.206;2023-09-18T06:55:22;19.60;99.90
45729;DHT22;31439;53.512;10.206;2023-09-18T06:57:47;19.60;99.90
45729;DHT22;31439;53.512;10.206;2023-09-18T07:00:14;19.60;99.90
45729;DHT22;31439;53.512;10.206;2023-09-18T07:02:40;19.60;99.90
45729;DHT22;31439;53.512;10.206;2023-09-18T07:05:06;19.70;99.90
45729;DHT22;31439;53.512;10.206;2023-09-18T07:07:32;19.70;99.90
45729;DHT22;31439;53.512;10.206;2023-09-18T07:09:57;19.90;99.90
45729;DHT22;31439;53.512;10.206;2023-09-18T07:12:23;19.90;99.90
45729;DHT22;31439;53.512;10.206;2023-09-18T07:14:49;19.90;99.90
45729;DHT22;31439;53.512;10.206;2023-09-18T07:17:14;20.00;99.90
45729;DHT22;31439;53.512;10.206;2023-09-18T07:19:40;20.00;99.90
45729;DHT22;31439;53.512;10.206;2023-09-18T07:22:06;20.00;99.90
45729;DHT22;31439;53.512;10.206;2023-09-18T07:24:32;20.10;99.90
45729;DHT22;31439;53.512;10.206;2023-09-18T07:26:57;20.20;99.90
45729;DHT22;31439;53.512;10.206;2023-09-18T07:29:23;20.20;99.90
45729;DHT22;31439;53.512;10.206;2023-09-18T07:31:51;20.30;99.90
45729;DHT22;31439;53.512;10.206;2023-09-18T07:34:17;20.30;99.90
45729;DHT22;31439;53.512;10.206;2023-09-18T07:36:43;20.40;99.90
45729;DHT22;31439;53.512;10.206;2023-09-18T07:39:10;20.50;99.90
45729;DHT22;31439;53.512;10.206;2023-09-18T07:41:37;20.50;99.90
45729;DHT22;31439;53.512;10.206;2023-09-18T07:44:03;20.50;99.90
45729;DHT22;31439;53.512;10.206;2023-09-18T07:46:29;20.60;99.90
45729;DHT22;31439;53.512;10.206;2023-09-18T07:48:55;20.60;99.90
45729;DHT22;31439;53.512;10.206;2023-09-18T07:51:20;20.70;99.90
45729;DHT22;31439;53.512;10.206;2023-09-18T07:53:47;20.70;99.90
45729;DHT22;31439;53.512;10.206;2023-09-18T07:56:12;20.80;99.90
45729;DHT22;31439;53.512;10.206;2023-09-18T07:58:38;20.90;99.90
45729;DHT22;31439;53.512;10.206;2023-09-18T08:01:07;20.90;99.90
45729;DHT22;31439;53.512;10.206;2023-09-18T08:03:34;21.00;99.90
45729;DHT22;31439;53.512;10.206;2023-09-18T08:06:00;21.00;99.90
45729;DHT22;31439;53.512;10.206;2023-09-18T08:08:26;21.00;99.90
45729;DHT22;31439;53.512;10.206;2023-09-18T08:10:52;21.00;99.90
45729;DHT22;31439;53.512;10.206;2023-09-18T08:13:18;21.10;99.90
45729;DHT22;31439;53.512;10.206;2023-09-18T08:15:45;21.10;99.90
45729;DHT22;31439;53.512;10.206;2023-09-18T08:18:12;21.10;99.90
45729;DHT22;31439;53.512;10.206;2023-09-18T08:20:44;21.10;99.90
45729;DHT22;31439;53.512;10.206;2023-09-18T08:23:11;21.10;99.90
45729;DHT22;31439;53.512;10.206;2023-09-18T08:25:38;21.10;99.90
45729;DHT22;31439;53.512;10.206;2023-09-18T08:28:05;21.10;99.90
45729;DHT22;31439;53.512;10.206;2023-09-18T08:30:32;21.10;99.90
45729;DHT22;31439;53.512;10.206;2023-09-18T08:32:57;21.10;99.90
45729;DHT22;31439;53.512;10.206;2023-09-18T08:35:23;21.10;99.90
45729;DHT22;31439;53.512;10.206;2023-09-18T08:37:53;21.10;99.90
45729;DHT22;31439;53.512;10.206;2023-09-18T08:40:19;21.10;99.90
45729;DHT22;31439;53.512;10.206;2023-09-18T08:42:47;21.00;99.90
45729;DHT22;31439;53.512;10.206;2023-09-18T08:45:38;21.00;99.90
45729;DHT22;31439;53.512;10.206;2023-09-18T08:48:06;20.90;99.90
45729;DHT22;31439;53.512;10.206;2023-09-18T08:50:33;20.90;99.90
45729;DHT22;31439;53.512;10.206;2023-09-18T08:52:59;21.00;99.90
45729;DHT22;31439;53.512;10.206;2023-09-18T08:55:25;21.10;99.90
45729;DHT22;31439;53.512;10.206;2023-09-18T08:57:52;21.10;99.90
45729;DHT22;31439;53.512;10.206;2023-09-18T09:00:19;21.00;99.90
45729;DHT22;31439;53.512;10.206;2023-09-18T09:02:45;21.00;99.90
45729;DHT22;31439;53.512;10.206;2023-09-18T09:05:11;21.00;99.90
45729;DHT22;31439;53.512;10.206;2023-09-18T09:07:37;21.00;99.90
45729;DHT22;31439;53.512;10.206;2023-09-18T09:10:03;21.00;99.90
45729;DHT22;31439;53.512;10.206;2023-09-18T09:12:52;21.10;99.90
45729;DHT22;31439;53.512;10.206;2023-09-18T09:18:47;21.40;99.90
45729;DHT22;31439;53.512;10.206;2023-09-18T09:21:14;21.40;99.90
45729;DHT22;31439;53.512;10.206;2023-09-18T09:23:49;21.30;99.90
45729;DHT22;31439;53.512;10.206;2023-09-18T09:26:16;21.30;99.90
45729;DHT22;31439;53.512;10.206;2023-09-18T09:28:44;21.40;99.90
45729;DHT22;31439;53.512;10.206;2023-09-18T09:31:10;21.40;99.90
45729;DHT22;31439;53.512;10.206;2023-09-18T09:33:37;21.50;99.90
45729;DHT22;31439;53.512;10.206;2023-09-18T09:36:05;21.50;99.90
45729;DHT22;31439;53.512;10.206;2023-09-18T09:38:32;21.60;99.90
45729;DHT22;31439;53.512;10.206;2023-09-18T09:41:03;21.60;99.90
45729;DHT22;31439;53.512;10.206;2023-09-18T09:43:34;21.50;99.90
45729;DHT22;31439;53.512;10.206;2023-09-18T09:46:01;21.50;99.90
45729;DHT22;31439;53.512;10.206;2023-09-18T09:48:27;19.90;99.90
45729;DHT22;31439;53.512;10.206;2023-09-18T09:50:58;21.50;99.90
45729;DHT22;31439;53.512;10.206;2023-09-18T09:53:44;21.50;99.90
45729;DHT22;31439;53.512;10.206;2023-09-18T09:56:12;21.50;99.90
45729;DHT22;31439;53.512;10.206;2023-09-18T09:58:38;21.60;99.90
45729;DHT22;31439;53.512;10.206;2023-09-18T10:01:08;21.60;99.90
45729;DHT22;31439;53.512;10.206;2023-09-18T10:03:38;21.60;99.90
45729;DHT22;31439;53.512;10.206;2023-09-18T10:06:05;21.60;99.90
45729;DHT22;31439;53.512;10.206;2023-09-18T10:08:32;21.60;99.90
45729;DHT22;31439;53.512;10.206;2023-09-18T10:11:06;21.70;99.90
45729;DHT22;31439;53.512;10.206;2023-09-18T10:13:48;21.70;99.90
45729;DHT22;31439;53.512;10.206;2023-09-18T10:16:18;21.70;99.90
45729;DHT22;31439;53.512;10.206;2023-09-18T10:21:41;21.60;99.90
45729;DHT22;31439;53.512;10.206;2023-09-18T10:24:28;21.60;99.90
45729;DHT22;31439;53.512;10.206;2023-09-18T10:27:00;21.60;99.90
45729;DHT22;31439;53.512;10.206;2023-09-18T10:29:26;21.60;99.90
45729;DHT22;31439;53.512;10.206;2023-09-18T10:31:53;21.70;99.90
45729;DHT22;31439;53.512;10.206;2023-09-18T10:34:20;21.70;99.90
45729;DHT22;31439;53.512;10.206;2023-09-18T10:36:56;21.70;99.90
45729;DHT22;31439;53.512;10.206;2023-09-18T10:39:26;21.70;99.90
45729;DHT22;31439;53.512;10.206;2023-09-18T10:41:55;21.80;99.90
45729;DHT22;31439;53.512;10.206;2023-09-18T10:44:23;21.90;99.90
45729;DHT22;31439;53.512;10.206;2023-09-18T10:46:51;21.90;99.90
45729;DHT22;31439;53.512;10.206;2023-09-18T10:49:21;22.10;99.90
45729;DHT22;31439;53.512;10.206;2023-09-18T10:51:47;22.10;99.90
45729;DHT22;31439;53.512;10.206;2023-09-18T10:54:20;22.10;99.90
45729;DHT22;31439;53.512;10.206;2023-09-18T10:56:47;22.10;99.90
45729;DHT22;31439;53.512;10.206;2023-09-18T10:59:14;22.20;99.90
45729;DHT22;31439;53.512;10.206;2023-09-18T11:01:40;22.20;99.90
45729;DHT22;31439;53.512;10.206;2023-09-18T11:04:07;22.20;99.90
45729;DHT22;31439;53.512;10.206;2023-09-18T11:09:31;22.10;99.90
45729;DHT22;31439;53.512;10.206;2023-09-18T11:20:09;22.30;99.90
45729;DHT22;31439;53.512;10.206;2023-09-18T11:22:36;22.30;99.90
45729;DHT22;31439;53.512;10.206;2023-09-18T11:28:00;22.40;99.90
45729;DHT22;31439;53.512;10.206;2023-09-18T11:30:28;22.50;99.90
45729;DHT22;31439;53.512;10.206;2023-09-18T11:32:54;22.60;99.90
45729;DHT22;31439;53.512;10.206;2023-09-18T11:35:21;22.60;99.90
45729;DHT22;31439;53.512;10.206;2023-09-18T11:37:47;22.60;99.90
45729;DHT22;31439;53.512;10.206;2023-09-18T11:40:33;22.60;99.90
45729;DHT22;31439;53.512;10.206;2023-09-18T11:43:26;22.60;99.90
45729;DHT22;31439;53.512;10.206;2023-09-18T11:45:53;22.60;99.90
45729;DHT22;31439;53.512;10.206;2023-09-18T11:48:26;22.50;99.90
45729;DHT22;31439;53.512;10.206;2023-09-18T11:50:58;22.50;99.90
45729;DHT22;31439;53.512;10.206;2023-09-18T11:53:27;22.50;99.90
45729;DHT22;31439;53.512;10.206;2023-09-18T11:55:53;22.50;99.90
45729;DHT22;31439;53.512;10.206;2023-09-18T11:58:19;22.60;99.90
45729;DHT22;31439;53.512;10.206;2023-09-18T12:00:49;22.60;99.90
45729;DHT22;31439;53.512;10.206;2023-09-18T12:03:19;22.70;99.90
45729;DHT22;31439;53.512;10.206;2023-09-18T12:08:19;22.70;99.90
45729;DHT22;31439;53.512;10.206;2023-09-18T12:10:50;22.60;99.90
45729;DHT22;31439;53.512;10.206;2023-09-18T12:13:16;22.70;99.90
45729;DHT22;31439;53.512;10.206;2023-09-18T12:15:42;22.70;99.90
45729;DHT22;31439;53.512;10.206;2023-09-18T12:18:09;22.60;99.90
45729;DHT22;31439;53.512;10.206;2023-09-18T12:20:37;22.70;99.90
45729;DHT22;31439;53.512;10.206;2023-09-18T12:23:03;22.80;99.90
45729;DHT22;31439;53.512;10.206;2023-09-18T12:25:29;22.80;99.90
45729;DHT22;31439;53.512;10.206;2023-09-18T12:27:55;22.90;99.90
45729;DHT22;31439;53.512;10.206;2023-09-18T12:30:22;22.90;99.90
45729;DHT22;31439;53.512;10.206;2023-09-18T12:32:51;23.00;99.90
45729;DHT22;31439;53.512;10.206;2023-09-18T12:35:17;23.10;99.90
45729;DHT22;31439;53.512;10.206;2023-09-18T12:37:46;23.20;99.90
45729;DHT22;31439;53.512;10.206;2023-09-18T12:40:32;23.30;99.90
45729;DHT22;31439;53.512;10.206;2023-09-18T12:43:01;23.30;99.90
45729;DHT22;31439;53.512;10.206;2023-09-18T12:45:28;23.30;99.90
45729;DHT22;31439;53.512;10.206;2023-09-18T12:47:56;23.20;99.90
45729;DHT22;31439;53.512;10.206;2023-09-18T12:50:24;23.20;99.90
45729;DHT22;31439;53.512;10.206;2023-09-18T12:52:49;23.10;99.90
45729;DHT22;31439;53.512;10.206;2023-09-18T12:55:25;23.10;99.90
45729;DHT22;31439;53.512;10.206;2023-09-18T12:57:52;23.10;99.90
45729;DHT22;31439;53.512;10.206;2023-09-18T13:00:22;23.20;99.90
45729;DHT22;31439;53.512;10.206;2023-09-18T13:02:49;23.30;99.90
45729;DHT22;31439;53.512;10.206;2023-09-18T13:05:21;23.40;99.90
45729;DHT22;31439;53.512;10.206;2023-09-18T13:07:50;23.30;99.90
45729;DHT22;31439;53.512;10.206;2023-09-18T13:10:16;23.30;99.90
45729;DHT22;31439;53.512;10.206;2023-09-18T13:12:46;23.40;99.90
45729;DHT22;31439;53.512;10.206;2023-09-18T13:15:29;23.50;99.90
45729;DHT22;31439;53.512;10.206;2023-09-18T13:18:00;23.70;99.90
45729;DHT22;31439;53.512;10.206;2023-09-18T13:20:28;23.80;99.90
45729;DHT22;31439;53.512;10.206;2023-09-18T13:22:58;23.80;99.90
45729;DHT22;31439;53.512;10.206;2023-09-18T13:25:29;23.70;99.90
45729;DHT22;31439;53.512;10.206;2023-09-18T13:27:55;23.60;99.90
45729;DHT22;31439;53.512;10.206;2023-09-18T13:30:21;23.50;99.90
45729;DHT22;31439;53.512;10.206;2023-09-18T13:32:49;23.40;99.90
45729;DHT22;31439;53.512;10.206;2023-09-18T13:35:16;23.30;99.90
45729;DHT22;31439;53.512;10.206;2023-09-18T13:37:42;23.30;99.90
45729;DHT22;31439;53.512;10.206;2023-09-18T13:40:08;23.20;99.90
45729;DHT22;31439;53.512;10.206;2023-09-18T13:42:38;23.10;99.90
45729;DHT22;31439;53.512;10.206;2023-09-18T13:45:05;23.10;99.90
45729;DHT22;31439;53.512;10.206;2023-09-18T13:47:32;23.10;99.90
45729;DHT22;31439;53.512;10.206;2023-09-18T13:49:59;23.20;99.90
45729;DHT22;31439;53.512;10.206;2023-09-18T13:52:32;23.20;99.90
45729;DHT22;31439;53.512;10.206;2023-09-18T13:54:59;23.20;99.90
45729;DHT22;31439;53.512;10.206;2023-09-18T13:57:25;23.20;99.90
45729;DHT22;31439;53.512;10.206;2023-09-18T13:59:51;23.20;99.90
45729;DHT22;31439;53.512;10.206;2023-09-18T14:02:17;23.20;99.90
45729;DHT22;31439;53.512;10.206;2023-09-18T14:04:43;23.10;99.90
45729;DHT22;31439;53.512;10.206;2023-09-18T14:07:10;23.10;99.90
45729;DHT22;31439;53.512;10.206;2023-09-18T14:09:37;23.00;99.90
45729;DHT22;31439;53.512;10.206;2023-09-18T14:12:02;23.00;99.90
45729;DHT22;31439;53.512;10.206;2023-09-18T14:14:29;22.90;99.90
45729;DHT22;31439;53.512;10.206;2023-09-18T14:16:55;22.90;99.90
45729;DHT22;31439;53.512;10.206;2023-09-18T14:19:21;22.90;99.90
45729;DHT22;31439;53.512;10.206;2023-09-18T14:21:47;22.90;99.90
45729;DHT22;31439;53.512;10.206;2023-09-18T14:24:15;22.90;99.90
45729;DHT22;31439;53.512;10.206;2023-09-18T14:26:43;22.90;99.90
45729;DHT22;31439;53.512;10.206;2023-09-18T14:29:09;22.90;99.90
45729;DHT22;31439;53.512;10.206;2023-09-18T14:31:39;22.90;99.90
45729;DHT22;31439;53.512;10.206;2023-09-18T14:34:04;22.90;99.90
45729;DHT22;31439;53.512;10.206;2023-09-18T14:36:34;22.90;99.90
45729;DHT22;31439;53.512;10.206;2023-09-18T14:39:01;23.00;99.90
45729;DHT22;31439;53.512;10.206;2023-09-18T14:41:27;23.10;99.90
45729;DHT22;31439;53.512;10.206;2023-09-18T14:43:53;23.20;99.90
45729;DHT22;31439;53.512;10.206;2023-09-18T14:46:18;23.30;99.90
45729;DHT22;31439;53.512;10.206;2023-09-18T14:48:45;23.40;99.90
45729;DHT22;31439;53.512;10.206;2023-09-18T14:51:11;23.40;99.90
45729;DHT22;31439;53.512;10.206;2023-09-18T14:53:37;23.30;99.90
45729;DHT22;31439;53.512;10.206;2023-09-18T14:56:03;23.20;99.90
45729;DHT22;31439;53.512;10.206;2023-09-18T14:58:29;23.20;99.90
45729;DHT22;31439;53.512;10.206;2023-09-18T15:00:56;23.20;99.90
45729;DHT22;31439;53.512;10.206;2023-09-18T15:03:22;23.10;99.90
45729;DHT22;31439;53.512;10.206;2023-09-18T15:05:50;23.10;99.90
45729;DHT22;31439;53.512;10.206;2023-09-18T15:08:16;23.10;99.90
45729;DHT22;31439;53.512;10.206;2023-09-18T15:10:43;23.20;99.90
45729;DHT22;31439;53.512;10.206;2023-09-18T15:13:09;23.20;99.90
45729;DHT22;31439;53.512;10.206;2023-09-18T15:15:34;23.10;99.90
45729;DHT22;31439;53.512;10.206;2023-09-18T15:18:01;23.10;99.90
45729;DHT22;31439;53.512;10.206;2023-09-18T15:20:27;23.00;99.90
45729;DHT22;31439;53.512;10.206;2023-09-18T15:22:52;23.10;99.90
45729;DHT22;31439;53.512;10.206;2023-09-18T15:25:21;23.10;99.90
45729;DHT22;31439;53.512;10.206;2023-09-18T15:27:47;23.10;99.90
45729;DHT22;31439;53.512;10.206;2023-09-18T15:30:13;23.20;99.90
45729;DHT22;31439;53.512;10.206;2023-09-18T15:35:14;23.10;99.90
45729;DHT22;31439;53.512;10.206;2023-09-18T15:37:40;23.10;99.90
45729;DHT22;31439;53.512;10.206;2023-09-18T15:40:06;23.10;99.90
45729;DHT22;31439;53.512;10.206;2023-09-18T15:42:32;23.10;99.90
45729;DHT22;31439;53.512;10.206;2023-09-18T15:44:57;23.10;99.90
45729;DHT22;31439;53.512;10.206;2023-09-18T15:47:23;23.10;99.90